Aérodrome :
LOGIN :

S'inscrire | Disclaimer

   EN    FR    IT 

 










Légende :    VFR   VFR Marginal   IFR   IFR Intensif   IFR Très Intensif
Visi : 
Plafond : 
>= 8 km
>= 3000ft
5 à 8 km
1000 à 3000 ft
1500m à 5 km
500 à 1000 ft
800 à 1500m
200 à 500 ft
< 800m
< 200 ft
Symboles :   Orages  Brouillard  Fortes neiges  Fortes précipitations  Vent > 20 kt
SIGMETs :   Divers  Orages  Givrage  Turbulence  Onde Orograph.  Cendres Volcan.






- Altitude de l'aérodrome : 46 ft
- Code IATA : SNN


EINN - Shannon

DERNIER METAR :
  • 201200Z 12007KT 9999 FEW010 SCT040 BKN100 09/07 Q0998 NOSIG

METARs EXPIRÉS :
  • 201130Z 11006KT 9999 FEW010 SCT060 BKN100 09/07 Q0998 NOSIG
  • 201100Z 12006KT 9999 FEW010 SCT040 BKN080 09/07 Q0998 NOSIG
  • 201030Z 12007KT 9999 FEW010 SCT040 BKN080 08/07 Q0998 NOSIG
  • 201000Z 11009KT 9999 FEW010 FEW018CB SCT040 BKN120 08/07 Q0998 NOSIG
  • 200930Z 11011KT 9999 FEW009 FEW018CB BKN044 08/06 Q0998 NOSIG
  • 200900Z 13010KT 9999 -SHRA FEW009 FEW018CB SCT024 BKN040 08/07 Q0998 NOSIG

TAF TAF EINN
Valide du 20 à 12h jusqu'au 21 à 12h UTC


201100Z 2012/2112 13008KT 9999 FEW014 BKN025
TEMPO 2012/2014 5000 -SHRA BKN014 SCT020CB
BECMG 2013/2015 10009KT
TEMPO 2014/2101 4000 SHRA BKN010 SCT020CB
TEMPO 2101/2104 7000 -SHRA SCT012 SCT020CB
PROB40
TEMPO 2101/2103 4000 SHRA BKN010
BECMG 2109/2111 07010KT



MET'MAP, la Météo Aéronautique d'un coup d'oeil ! - Copyright ORBIFLY Décembre 2007 - Disclaimer

ORBIFLY MET'MAP TEAM :

Programmation & Développement : Alexandra Zaïnal
Conception & Développement : Baudouin d'Aumeries
Co-Programmation & Développement : Marc-Olivier Méhu
Soutien technique & logistique : Manuel Goepfert

Contact : metmap@orbifly.com




SOURCES & CREDITS :

   NOAA